sensor_id;sensor_type;location;lat;lon;timestamp;P1;durP1;ratioP1;P2;durP2;ratioP2
72771;SDS011;60894;42.544;1.516;2023-04-28T00:00:17;5.68;;;2.40;;
72771;SDS011;60894;42.544;1.516;2023-04-28T00:02:45;5.80;;;2.50;;
72771;SDS011;60894;42.544;1.516;2023-04-28T00:05:12;6.68;;;2.45;;
72771;SDS011;60894;42.544;1.516;2023-04-28T00:07:39;5.80;;;2.60;;
72771;SDS011;60894;42.544;1.516;2023-04-28T00:10:08;6.30;;;2.17;;
72771;SDS011;60894;42.544;1.516;2023-04-28T00:12:35;6.32;;;2.53;;
72771;SDS011;60894;42.544;1.516;2023-04-28T00:15:03;6.20;;;2.50;;
72771;SDS011;60894;42.544;1.516;2023-04-28T00:17:30;6.18;;;2.25;;
72771;SDS011;60894;42.544;1.516;2023-04-28T00:19:57;6.28;;;2.30;;
72771;SDS011;60894;42.544;1.516;2023-04-28T00:22:24;6.53;;;2.40;;
72771;SDS011;60894;42.544;1.516;2023-04-28T00:24:51;6.40;;;2.60;;
72771;SDS011;60894;42.544;1.516;2023-04-28T00:27:19;8.63;;;3.00;;
72771;SDS011;60894;42.544;1.516;2023-04-28T00:29:46;5.97;;;2.50;;
72771;SDS011;60894;42.544;1.516;2023-04-28T00:32:13;6.65;;;2.63;;
72771;SDS011;60894;42.544;1.516;2023-04-28T00:34:40;5.57;;;2.53;;
72771;SDS011;60894;42.544;1.516;2023-04-28T00:37:07;6.78;;;2.70;;
72771;SDS011;60894;42.544;1.516;2023-04-28T00:39:33;6.53;;;2.70;;
72771;SDS011;60894;42.544;1.516;2023-04-28T00:42:01;5.60;;;2.30;;
72771;SDS011;60894;42.544;1.516;2023-04-28T00:44:30;6.63;;;2.60;;
72771;SDS011;60894;42.544;1.516;2023-04-28T00:46:57;6.53;;;2.70;;
72771;SDS011;60894;42.544;1.516;2023-04-28T00:49:24;8.20;;;2.53;;
72771;SDS011;60894;42.544;1.516;2023-04-28T00:51:51;6.13;;;2.60;;
72771;SDS011;60894;42.544;1.516;2023-04-28T00:54:18;5.38;;;2.40;;
72771;SDS011;60894;42.544;1.516;2023-04-28T00:56:45;5.82;;;2.42;;
72771;SDS011;60894;42.544;1.516;2023-04-28T00:59:13;5.77;;;2.50;;
72771;SDS011;60894;42.544;1.516;2023-04-28T01:01:41;5.82;;;2.42;;
72771;SDS011;60894;42.544;1.516;2023-04-28T01:04:09;6.20;;;2.40;;
72771;SDS011;60894;42.544;1.516;2023-04-28T01:06:37;6.18;;;2.40;;
72771;SDS011;60894;42.544;1.516;2023-04-28T01:09:04;5.43;;;2.25;;
72771;SDS011;60894;42.544;1.516;2023-04-28T01:11:31;6.57;;;2.73;;
72771;SDS011;60894;42.544;1.516;2023-04-28T01:13:58;8.05;;;2.67;;
72771;SDS011;60894;42.544;1.516;2023-04-28T01:16:25;6.05;;;2.50;;
72771;SDS011;60894;42.544;1.516;2023-04-28T01:18:53;6.57;;;2.72;;
72771;SDS011;60894;42.544;1.516;2023-04-28T01:21:27;6.70;;;3.00;;
72771;SDS011;60894;42.544;1.516;2023-04-28T01:23:56;8.10;;;2.70;;
72771;SDS011;60894;42.544;1.516;2023-04-28T01:26:23;6.20;;;2.60;;
72771;SDS011;60894;42.544;1.516;2023-04-28T01:28:50;7.72;;;3.58;;
72771;SDS011;60894;42.544;1.516;2023-04-28T01:31:17;7.15;;;2.92;;
72771;SDS011;60894;42.544;1.516;2023-04-28T01:33:44;6.38;;;2.72;;
72771;SDS011;60894;42.544;1.516;2023-04-28T01:36:11;4.83;;;2.40;;
72771;SDS011;60894;42.544;1.516;2023-04-28T01:38:38;7.22;;;2.60;;
72771;SDS011;60894;42.544;1.516;2023-04-28T01:41:06;7.00;;;2.50;;
72771;SDS011;60894;42.544;1.516;2023-04-28T01:43:33;7.82;;;2.70;;
72771;SDS011;60894;42.544;1.516;2023-04-28T01:46:00;8.00;;;3.00;;
72771;SDS011;60894;42.544;1.516;2023-04-28T01:48:27;6.10;;;2.60;;
72771;SDS011;60894;42.544;1.516;2023-04-28T01:50:54;6.18;;;2.50;;
72771;SDS011;60894;42.544;1.516;2023-04-28T01:53:21;7.78;;;2.95;;
72771;SDS011;60894;42.544;1.516;2023-04-28T01:55:48;6.28;;;2.60;;
72771;SDS011;60894;42.544;1.516;2023-04-28T01:58:17;6.30;;;2.60;;
72771;SDS011;60894;42.544;1.516;2023-04-28T02:00:44;5.97;;;2.40;;
72771;SDS011;60894;42.544;1.516;2023-04-28T02:03:11;7.20;;;3.05;;
72771;SDS011;60894;42.544;1.516;2023-04-28T02:05:38;6.07;;;2.70;;
72771;SDS011;60894;42.544;1.516;2023-04-28T02:08:05;6.22;;;2.60;;
72771;SDS011;60894;42.544;1.516;2023-04-28T02:10:32;5.53;;;2.60;;
72771;SDS011;60894;42.544;1.516;2023-04-28T02:12:59;6.73;;;2.67;;
72771;SDS011;60894;42.544;1.516;2023-04-28T02:15:27;6.00;;;2.30;;
72771;SDS011;60894;42.544;1.516;2023-04-28T02:17:54;5.45;;;2.60;;
72771;SDS011;60894;42.544;1.516;2023-04-28T02:20:21;5.82;;;2.50;;
72771;SDS011;60894;42.544;1.516;2023-04-28T02:22:48;6.20;;;2.80;;
72771;SDS011;60894;42.544;1.516;2023-04-28T02:25:15;6.00;;;2.37;;
72771;SDS011;60894;42.544;1.516;2023-04-28T02:27:42;5.28;;;2.30;;
72771;SDS011;60894;42.544;1.516;2023-04-28T02:30:09;6.25;;;2.42;;
72771;SDS011;60894;42.544;1.516;2023-04-28T02:32:38;6.05;;;2.25;;
72771;SDS011;60894;42.544;1.516;2023-04-28T02:35:05;6.05;;;2.40;;
72771;SDS011;60894;42.544;1.516;2023-04-28T02:37:33;6.47;;;2.40;;
72771;SDS011;60894;42.544;1.516;2023-04-28T02:40:00;6.00;;;2.28;;
72771;SDS011;60894;42.544;1.516;2023-04-28T02:42:27;5.63;;;2.47;;
72771;SDS011;60894;42.544;1.516;2023-04-28T02:44:54;5.35;;;2.50;;
72771;SDS011;60894;42.544;1.516;2023-04-28T02:47:21;5.65;;;2.42;;
72771;SDS011;60894;42.544;1.516;2023-04-28T02:49:49;6.63;;;3.03;;
72771;SDS011;60894;42.544;1.516;2023-04-28T02:52:16;5.05;;;2.45;;
72771;SDS011;60894;42.544;1.516;2023-04-28T02:54:43;6.05;;;2.35;;
72771;SDS011;60894;42.544;1.516;2023-04-28T02:57:13;6.18;;;2.63;;
72771;SDS011;60894;42.544;1.516;2023-04-28T02:59:40;5.53;;;2.40;;
72771;SDS011;60894;42.544;1.516;2023-04-28T03:02:06;6.77;;;2.80;;
72771;SDS011;60894;42.544;1.516;2023-04-28T03:04:34;7.10;;;2.60;;
72771;SDS011;60894;42.544;1.516;2023-04-28T03:07:02;6.38;;;2.67;;
72771;SDS011;60894;42.544;1.516;2023-04-28T03:09:29;7.40;;;2.70;;
72771;SDS011;60894;42.544;1.516;2023-04-28T03:11:56;5.70;;;2.40;;
72771;SDS011;60894;42.544;1.516;2023-04-28T03:14:23;5.67;;;2.57;;
72771;SDS011;60894;42.544;1.516;2023-04-28T03:16:50;5.18;;;2.25;;
72771;SDS011;60894;42.544;1.516;2023-04-28T03:19:17;4.50;;;2.33;;
72771;SDS011;60894;42.544;1.516;2023-04-28T03:21:44;7.03;;;2.33;;
72771;SDS011;60894;42.544;1.516;2023-04-28T03:24:13;6.30;;;2.60;;
72771;SDS011;60894;42.544;1.516;2023-04-28T03:26:40;6.17;;;2.20;;
72771;SDS011;60894;42.544;1.516;2023-04-28T03:29:07;7.95;;;2.40;;
72771;SDS011;60894;42.544;1.516;2023-04-28T03:31:34;6.57;;;2.50;;
72771;SDS011;60894;42.544;1.516;2023-04-28T03:34:01;5.72;;;2.33;;
72771;SDS011;60894;42.544;1.516;2023-04-28T03:36:28;6.22;;;2.58;;
72771;SDS011;60894;42.544;1.516;2023-04-28T03:38:56;6.47;;;2.60;;
72771;SDS011;60894;42.544;1.516;2023-04-28T03:41:24;5.13;;;2.42;;
72771;SDS011;60894;42.544;1.516;2023-04-28T03:43:51;6.18;;;2.33;;
72771;SDS011;60894;42.544;1.516;2023-04-28T03:46:18;7.22;;;2.55;;
72771;SDS011;60894;42.544;1.516;2023-04-28T03:48:45;6.07;;;2.83;;
72771;SDS011;60894;42.544;1.516;2023-04-28T03:51:12;5.50;;;2.33;;
72771;SDS011;60894;42.544;1.516;2023-04-28T03:53:39;5.82;;;2.60;;
72771;SDS011;60894;42.544;1.516;2023-04-28T03:56:06;5.93;;;2.63;;
72771;SDS011;60894;42.544;1.516;2023-04-28T03:58:34;6.43;;;2.50;;
72771;SDS011;60894;42.544;1.516;2023-04-28T04:01:01;6.35;;;2.70;;
72771;SDS011;60894;42.544;1.516;2023-04-28T04:03:29;7.50;;;2.63;;
72771;SDS011;60894;42.544;1.516;2023-04-28T04:05:56;6.78;;;2.50;;
72771;SDS011;60894;42.544;1.516;2023-04-28T04:08:23;5.97;;;2.60;;
72771;SDS011;60894;42.544;1.516;2023-04-28T04:10:50;5.35;;;2.50;;
72771;SDS011;60894;42.544;1.516;2023-04-28T04:13:18;6.28;;;2.50;;
72771;SDS011;60894;42.544;1.516;2023-04-28T04:15:47;6.37;;;2.40;;
72771;SDS011;60894;42.544;1.516;2023-04-28T04:18:16;6.72;;;2.50;;
72771;SDS011;60894;42.544;1.516;2023-04-28T04:20:43;8.75;;;2.75;;
72771;SDS011;60894;42.544;1.516;2023-04-28T04:23:10;7.00;;;2.60;;
72771;SDS011;60894;42.544;1.516;2023-04-28T04:25:37;5.95;;;2.58;;
72771;SDS011;60894;42.544;1.516;2023-04-28T04:28:04;7.27;;;2.53;;
72771;SDS011;60894;42.544;1.516;2023-04-28T04:30:31;6.13;;;2.60;;
72771;SDS011;60894;42.544;1.516;2023-04-28T04:33:00;4.97;;;2.53;;
72771;SDS011;60894;42.544;1.516;2023-04-28T04:35:26;5.97;;;2.50;;
72771;SDS011;60894;42.544;1.516;2023-04-28T04:37:53;6.80;;;2.42;;
72771;SDS011;60894;42.544;1.516;2023-04-28T04:40:20;6.67;;;2.53;;
72771;SDS011;60894;42.544;1.516;2023-04-28T04:42:47;6.38;;;2.42;;
72771;SDS011;60894;42.544;1.516;2023-04-28T04:45:14;6.53;;;2.80;;
72771;SDS011;60894;42.544;1.516;2023-04-28T04:47:41;7.38;;;2.63;;
72771;SDS011;60894;42.544;1.516;2023-04-28T04:50:10;6.10;;;2.42;;
72771;SDS011;60894;42.544;1.516;2023-04-28T04:52:37;5.07;;;2.40;;
72771;SDS011;60894;42.544;1.516;2023-04-28T04:55:05;8.82;;;3.50;;
72771;SDS011;60894;42.544;1.516;2023-04-28T04:57:35;6.75;;;4.40;;
72771;SDS011;60894;42.544;1.516;2023-04-28T05:00:02;7.32;;;3.00;;
72771;SDS011;60894;42.544;1.516;2023-04-28T05:02:30;6.28;;;2.80;;
72771;SDS011;60894;42.544;1.516;2023-04-28T05:04:56;7.87;;;2.60;;
72771;SDS011;60894;42.544;1.516;2023-04-28T05:07:25;6.32;;;2.67;;
72771;SDS011;60894;42.544;1.516;2023-04-28T05:09:52;7.50;;;2.90;;
72771;SDS011;60894;42.544;1.516;2023-04-28T05:12:19;7.90;;;3.35;;
72771;SDS011;60894;42.544;1.516;2023-04-28T05:14:46;7.47;;;3.00;;
72771;SDS011;60894;42.544;1.516;2023-04-28T05:17:12;7.70;;;2.90;;
72771;SDS011;60894;42.544;1.516;2023-04-28T05:19:39;5.68;;;2.78;;
72771;SDS011;60894;42.544;1.516;2023-04-28T05:22:06;7.30;;;3.03;;
72771;SDS011;60894;42.544;1.516;2023-04-28T05:24:35;5.63;;;2.72;;
72771;SDS011;60894;42.544;1.516;2023-04-28T05:27:01;8.40;;;2.92;;
72771;SDS011;60894;42.544;1.516;2023-04-28T05:29:28;7.50;;;2.80;;
72771;SDS011;60894;42.544;1.516;2023-04-28T05:31:55;5.80;;;2.72;;
72771;SDS011;60894;42.544;1.516;2023-04-28T05:34:22;8.73;;;3.45;;
72771;SDS011;60894;42.544;1.516;2023-04-28T05:36:50;9.02;;;6.13;;
72771;SDS011;60894;42.544;1.516;2023-04-28T05:39:17;8.68;;;4.20;;
72771;SDS011;60894;42.544;1.516;2023-04-28T05:41:45;7.73;;;3.43;;
72771;SDS011;60894;42.544;1.516;2023-04-28T05:44:12;7.78;;;3.53;;
72771;SDS011;60894;42.544;1.516;2023-04-28T05:46:39;8.38;;;5.53;;
72771;SDS011;60894;42.544;1.516;2023-04-28T05:49:06;8.18;;;3.65;;
72771;SDS011;60894;42.544;1.516;2023-04-28T05:51:34;8.38;;;3.40;;
72771;SDS011;60894;42.544;1.516;2023-04-28T05:54:01;7.90;;;3.03;;
72771;SDS011;60894;42.544;1.516;2023-04-28T05:56:28;7.78;;;4.15;;
72771;SDS011;60894;42.544;1.516;2023-04-28T05:58:56;12.00;;;5.45;;
72771;SDS011;60894;42.544;1.516;2023-04-28T06:01:26;9.00;;;3.83;;
72771;SDS011;60894;42.544;1.516;2023-04-28T06:03:53;9.75;;;3.58;;
72771;SDS011;60894;42.544;1.516;2023-04-28T06:06:24;28.87;;;22.90;;
72771;SDS011;60894;42.544;1.516;2023-04-28T06:08:51;17.40;;;9.93;;
72771;SDS011;60894;42.544;1.516;2023-04-28T06:11:18;15.50;;;10.45;;
72771;SDS011;60894;42.544;1.516;2023-04-28T06:13:46;27.20;;;18.83;;
72771;SDS011;60894;42.544;1.516;2023-04-28T06:16:15;11.43;;;6.82;;
72771;SDS011;60894;42.544;1.516;2023-04-28T06:18:43;7.70;;;3.60;;
72771;SDS011;60894;42.544;1.516;2023-04-28T06:21:10;10.57;;;3.30;;
72771;SDS011;60894;42.544;1.516;2023-04-28T06:23:36;9.73;;;5.90;;
72771;SDS011;60894;42.544;1.516;2023-04-28T06:26:04;11.75;;;7.05;;
72771;SDS011;60894;42.544;1.516;2023-04-28T06:28:32;9.82;;;5.38;;
72771;SDS011;60894;42.544;1.516;2023-04-28T06:30:59;8.70;;;4.30;;
72771;SDS011;60894;42.544;1.516;2023-04-28T06:33:27;11.15;;;6.38;;
72771;SDS011;60894;42.544;1.516;2023-04-28T06:35:54;13.38;;;6.68;;
72771;SDS011;60894;42.544;1.516;2023-04-28T06:38:21;9.93;;;4.97;;
72771;SDS011;60894;42.544;1.516;2023-04-28T06:40:48;9.95;;;5.20;;
72771;SDS011;60894;42.544;1.516;2023-04-28T06:43:15;11.43;;;5.67;;
72771;SDS011;60894;42.544;1.516;2023-04-28T06:45:42;9.23;;;5.40;;
72771;SDS011;60894;42.544;1.516;2023-04-28T06:48:10;10.35;;;5.65;;
72771;SDS011;60894;42.544;1.516;2023-04-28T06:50:38;11.88;;;6.15;;
72771;SDS011;60894;42.544;1.516;2023-04-28T06:53:05;9.43;;;5.35;;
72771;SDS011;60894;42.544;1.516;2023-04-28T06:55:33;11.53;;;5.53;;
72771;SDS011;60894;42.544;1.516;2023-04-28T06:58:00;9.48;;;4.95;;
72771;SDS011;60894;42.544;1.516;2023-04-28T07:00:27;14.93;;;8.02;;
72771;SDS011;60894;42.544;1.516;2023-04-28T07:02:54;17.85;;;9.70;;
72771;SDS011;60894;42.544;1.516;2023-04-28T07:05:21;17.95;;;11.13;;
72771;SDS011;60894;42.544;1.516;2023-04-28T07:07:49;20.50;;;12.43;;
72771;SDS011;60894;42.544;1.516;2023-04-28T07:10:16;16.67;;;10.57;;
72771;SDS011;60894;42.544;1.516;2023-04-28T07:12:43;24.60;;;14.18;;
72771;SDS011;60894;42.544;1.516;2023-04-28T07:15:10;18.65;;;11.13;;
72771;SDS011;60894;42.544;1.516;2023-04-28T07:17:37;13.52;;;5.65;;
72771;SDS011;60894;42.544;1.516;2023-04-28T07:20:05;9.43;;;3.83;;
72771;SDS011;60894;42.544;1.516;2023-04-28T07:22:32;15.35;;;6.75;;
72771;SDS011;60894;42.544;1.516;2023-04-28T07:25:01;11.88;;;4.80;;
72771;SDS011;60894;42.544;1.516;2023-04-28T07:27:30;9.35;;;4.38;;
72771;SDS011;60894;42.544;1.516;2023-04-28T07:29:57;12.05;;;4.45;;
72771;SDS011;60894;42.544;1.516;2023-04-28T07:32:24;10.07;;;4.93;;
72771;SDS011;60894;42.544;1.516;2023-04-28T07:34:50;8.23;;;4.00;;
72771;SDS011;60894;42.544;1.516;2023-04-28T07:37:17;9.63;;;4.03;;
72771;SDS011;60894;42.544;1.516;2023-04-28T07:39:44;12.27;;;6.53;;
72771;SDS011;60894;42.544;1.516;2023-04-28T07:42:13;16.38;;;10.20;;
72771;SDS011;60894;42.544;1.516;2023-04-28T07:44:40;17.07;;;9.87;;
72771;SDS011;60894;42.544;1.516;2023-04-28T07:47:07;21.70;;;12.30;;
72771;SDS011;60894;42.544;1.516;2023-04-28T07:49:34;13.85;;;7.60;;
72771;SDS011;60894;42.544;1.516;2023-04-28T07:52:01;12.80;;;6.00;;
72771;SDS011;60894;42.544;1.516;2023-04-28T07:54:28;12.82;;;6.78;;
72771;SDS011;60894;42.544;1.516;2023-04-28T07:56:55;12.70;;;7.13;;
72771;SDS011;60894;42.544;1.516;2023-04-28T07:59:24;10.75;;;6.03;;
72771;SDS011;60894;42.544;1.516;2023-04-28T08:01:51;10.13;;;5.85;;
72771;SDS011;60894;42.544;1.516;2023-04-28T08:04:18;11.68;;;5.88;;
72771;SDS011;60894;42.544;1.516;2023-04-28T08:06:45;12.00;;;4.78;;
72771;SDS011;60894;42.544;1.516;2023-04-28T08:09:12;9.80;;;4.27;;
72771;SDS011;60894;42.544;1.516;2023-04-28T08:11:39;9.05;;;4.10;;
72771;SDS011;60894;42.544;1.516;2023-04-28T08:14:06;9.95;;;4.70;;
72771;SDS011;60894;42.544;1.516;2023-04-28T08:16:34;12.73;;;5.55;;
72771;SDS011;60894;42.544;1.516;2023-04-28T08:19:04;13.13;;;5.63;;
72771;SDS011;60894;42.544;1.516;2023-04-28T08:21:31;13.90;;;6.00;;
72771;SDS011;60894;42.544;1.516;2023-04-28T08:23:58;12.32;;;5.75;;
72771;SDS011;60894;42.544;1.516;2023-04-28T08:26:25;15.82;;;6.13;;
72771;SDS011;60894;42.544;1.516;2023-04-28T08:28:53;15.35;;;6.20;;
72771;SDS011;60894;42.544;1.516;2023-04-28T08:31:19;10.10;;;4.43;;
72771;SDS011;60894;42.544;1.516;2023-04-28T08:33:48;12.10;;;4.60;;
72771;SDS011;60894;42.544;1.516;2023-04-28T08:36:15;7.32;;;3.38;;
72771;SDS011;60894;42.544;1.516;2023-04-28T08:38:42;12.95;;;4.00;;
72771;SDS011;60894;42.544;1.516;2023-04-28T08:41:10;11.30;;;3.58;;
72771;SDS011;60894;42.544;1.516;2023-04-28T08:43:39;8.00;;;3.50;;
72771;SDS011;60894;42.544;1.516;2023-04-28T08:46:07;6.97;;;3.37;;
72771;SDS011;60894;42.544;1.516;2023-04-28T08:48:38;7.50;;;3.17;;
72771;SDS011;60894;42.544;1.516;2023-04-28T08:51:09;9.20;;;2.92;;
72771;SDS011;60894;42.544;1.516;2023-04-28T08:53:43;8.48;;;3.10;;
72771;SDS011;60894;42.544;1.516;2023-04-28T08:56:15;10.93;;;3.10;;
72771;SDS011;60894;42.544;1.516;2023-04-28T08:58:43;7.23;;;2.80;;
72771;SDS011;60894;42.544;1.516;2023-04-28T09:01:10;7.35;;;2.83;;
72771;SDS011;60894;42.544;1.516;2023-04-28T09:03:36;6.47;;;2.90;;
72771;SDS011;60894;42.544;1.516;2023-04-28T09:06:04;7.60;;;3.00;;
72771;SDS011;60894;42.544;1.516;2023-04-28T09:08:32;6.47;;;2.70;;
72771;SDS011;60894;42.544;1.516;2023-04-28T09:11:06;8.27;;;2.77;;
72771;SDS011;60894;42.544;1.516;2023-04-28T09:13:33;7.03;;;2.53;;
72771;SDS011;60894;42.544;1.516;2023-04-28T09:16:01;6.65;;;2.42;;
72771;SDS011;60894;42.544;1.516;2023-04-28T09:18:29;6.03;;;1.90;;
72771;SDS011;60894;42.544;1.516;2023-04-28T09:21:04;5.13;;;2.30;;
72771;SDS011;60894;42.544;1.516;2023-04-28T09:23:34;3.90;;;1.80;;
72771;SDS011;60894;42.544;1.516;2023-04-28T09:26:12;4.38;;;1.77;;
72771;SDS011;60894;42.544;1.516;2023-04-28T09:28:39;6.05;;;1.80;;
72771;SDS011;60894;42.544;1.516;2023-04-28T09:31:11;4.63;;;1.65;;
72771;SDS011;60894;42.544;1.516;2023-04-28T09:33:55;5.35;;;2.10;;
72771;SDS011;60894;42.544;1.516;2023-04-28T09:36:25;5.60;;;2.30;;
72771;SDS011;60894;42.544;1.516;2023-04-28T09:38:57;8.95;;;2.25;;
72771;SDS011;60894;42.544;1.516;2023-04-28T09:41:33;4.63;;;2.10;;
72771;SDS011;60894;42.544;1.516;2023-04-28T09:44:09;4.75;;;1.90;;
72771;SDS011;60894;42.544;1.516;2023-04-28T09:46:39;7.40;;;1.98;;
72771;SDS011;60894;42.544;1.516;2023-04-28T09:49:06;4.40;;;2.00;;
72771;SDS011;60894;42.544;1.516;2023-04-28T09:51:34;4.50;;;2.10;;
72771;SDS011;60894;42.544;1.516;2023-04-28T09:54:02;6.03;;;2.10;;
72771;SDS011;60894;42.544;1.516;2023-04-28T09:56:30;9.05;;;2.40;;
72771;SDS011;60894;42.544;1.516;2023-04-28T09:58:58;6.75;;;2.22;;
72771;SDS011;60894;42.544;1.516;2023-04-28T10:01:26;9.00;;;2.33;;
72771;SDS011;60894;42.544;1.516;2023-04-28T10:03:56;6.40;;;2.65;;
72771;SDS011;60894;42.544;1.516;2023-04-28T10:06:26;6.78;;;2.10;;
72771;SDS011;60894;42.544;1.516;2023-04-28T10:08:54;8.85;;;2.97;;
72771;SDS011;60894;42.544;1.516;2023-04-28T10:11:24;7.25;;;2.30;;
72771;SDS011;60894;42.544;1.516;2023-04-28T10:13:52;3.37;;;1.40;;
72771;SDS011;60894;42.544;1.516;2023-04-28T10:16:19;7.20;;;1.80;;
72771;SDS011;60894;42.544;1.516;2023-04-28T10:18:47;5.85;;;1.90;;
72771;SDS011;60894;42.544;1.516;2023-04-28T10:21:16;6.15;;;1.70;;
72771;SDS011;60894;42.544;1.516;2023-04-28T10:23:51;7.38;;;1.55;;
72771;SDS011;60894;42.544;1.516;2023-04-28T10:29:33;8.13;;;1.70;;
72771;SDS011;60894;42.544;1.516;2023-04-28T10:32:14;4.45;;;1.65;;
72771;SDS011;60894;42.544;1.516;2023-04-28T10:34:45;4.55;;;1.60;;
72771;SDS011;60894;42.544;1.516;2023-04-28T10:37:12;5.18;;;1.60;;
72771;SDS011;60894;42.544;1.516;2023-04-28T10:39:51;6.27;;;1.60;;
72771;SDS011;60894;42.544;1.516;2023-04-28T10:42:55;4.40;;;1.58;;
72771;SDS011;60894;42.544;1.516;2023-04-28T10:51:30;4.80;;;1.60;;
72771;SDS011;60894;42.544;1.516;2023-04-28T10:54:14;2.33;;;1.40;;
72771;SDS011;60894;42.544;1.516;2023-04-28T10:59:47;5.95;;;2.00;;
72771;SDS011;60894;42.544;1.516;2023-04-28T11:02:34;4.13;;;1.65;;
72771;SDS011;60894;42.544;1.516;2023-04-28T11:05:09;6.10;;;1.60;;
72771;SDS011;60894;42.544;1.516;2023-04-28T11:07:40;4.83;;;1.40;;
72771;SDS011;60894;42.544;1.516;2023-04-28T11:13:27;3.95;;;1.45;;
72771;SDS011;60894;42.544;1.516;2023-04-28T11:16:02;3.58;;;1.42;;
72771;SDS011;60894;42.544;1.516;2023-04-28T11:18:30;4.15;;;1.80;;
72771;SDS011;60894;42.544;1.516;2023-04-28T11:21:13;3.63;;;1.57;;
72771;SDS011;60894;42.544;1.516;2023-04-28T11:23:40;3.45;;;1.40;;
72771;SDS011;60894;42.544;1.516;2023-04-28T11:26:08;5.20;;;1.60;;
72771;SDS011;60894;42.544;1.516;2023-04-28T11:28:35;3.47;;;1.38;;
72771;SDS011;60894;42.544;1.516;2023-04-28T11:31:13;4.90;;;1.67;;
72771;SDS011;60894;42.544;1.516;2023-04-28T11:33:44;4.80;;;1.60;;
72771;SDS011;60894;42.544;1.516;2023-04-28T11:36:22;3.05;;;1.30;;
72771;SDS011;60894;42.544;1.516;2023-04-28T11:38:53;3.33;;;1.42;;
72771;SDS011;60894;42.544;1.516;2023-04-28T11:41:21;5.75;;;1.40;;
72771;SDS011;60894;42.544;1.516;2023-04-28T11:43:49;6.05;;;1.48;;
72771;SDS011;60894;42.544;1.516;2023-04-28T11:46:18;3.47;;;1.80;;
72771;SDS011;60894;42.544;1.516;2023-04-28T11:48:46;5.43;;;1.50;;
72771;SDS011;60894;42.544;1.516;2023-04-28T11:54:12;5.10;;;1.50;;
72771;SDS011;60894;42.544;1.516;2023-04-28T11:56:40;4.32;;;1.42;;
72771;SDS011;60894;42.544;1.516;2023-04-28T11:59:09;3.40;;;1.40;;
72771;SDS011;60894;42.544;1.516;2023-04-28T12:01:46;4.35;;;1.52;;
72771;SDS011;60894;42.544;1.516;2023-04-28T12:04:25;5.15;;;1.50;;
72771;SDS011;60894;42.544;1.516;2023-04-28T12:06:59;3.60;;;1.65;;
72771;SDS011;60894;42.544;1.516;2023-04-28T12:09:28;4.15;;;1.50;;
72771;SDS011;60894;42.544;1.516;2023-04-28T12:11:55;5.27;;;1.80;;
72771;SDS011;60894;42.544;1.516;2023-04-28T12:14:23;5.78;;;1.73;;
72771;SDS011;60894;42.544;1.516;2023-04-28T12:16:52;3.22;;;1.40;;
72771;SDS011;60894;42.544;1.516;2023-04-28T12:19:18;5.30;;;1.50;;
72771;SDS011;60894;42.544;1.516;2023-04-28T12:21:58;4.70;;;1.50;;
72771;SDS011;60894;42.544;1.516;2023-04-28T12:24:26;3.40;;;1.53;;
72771;SDS011;60894;42.544;1.516;2023-04-28T12:26:53;4.80;;;1.42;;
72771;SDS011;60894;42.544;1.516;2023-04-28T12:29:36;5.22;;;1.77;;
72771;SDS011;60894;42.544;1.516;2023-04-28T12:32:06;5.70;;;2.15;;
72771;SDS011;60894;42.544;1.516;2023-04-28T12:34:34;4.13;;;1.73;;
72771;SDS011;60894;42.544;1.516;2023-04-28T12:37:02;3.80;;;1.50;;
72771;SDS011;60894;42.544;1.516;2023-04-28T12:39:30;4.70;;;1.40;;
72771;SDS011;60894;42.544;1.516;2023-04-28T12:41:58;5.88;;;1.60;;
72771;SDS011;60894;42.544;1.516;2023-04-28T12:44:26;4.22;;;1.50;;
72771;SDS011;60894;42.544;1.516;2023-04-28T12:46:53;3.92;;;1.50;;
72771;SDS011;60894;42.544;1.516;2023-04-28T12:49:22;4.50;;;1.63;;
72771;SDS011;60894;42.544;1.516;2023-04-28T12:51:49;6.15;;;1.60;;
72771;SDS011;60894;42.544;1.516;2023-04-28T12:54:16;4.78;;;1.42;;
72771;SDS011;60894;42.544;1.516;2023-04-28T12:56:43;6.88;;;1.70;;
72771;SDS011;60894;42.544;1.516;2023-04-28T12:59:10;7.97;;;1.98;;
72771;SDS011;60894;42.544;1.516;2023-04-28T13:01:37;6.33;;;1.77;;
72771;SDS011;60894;42.544;1.516;2023-04-28T13:04:04;5.72;;;1.70;;
72771;SDS011;60894;42.544;1.516;2023-04-28T13:06:32;7.32;;;1.60;;
72771;SDS011;60894;42.544;1.516;2023-04-28T13:09:00;8.40;;;1.77;;
72771;SDS011;60894;42.544;1.516;2023-04-28T13:11:27;4.90;;;1.80;;
72771;SDS011;60894;42.544;1.516;2023-04-28T13:13:55;4.83;;;1.40;;
72771;SDS011;60894;42.544;1.516;2023-04-28T13:16:22;4.15;;;1.40;;
72771;SDS011;60894;42.544;1.516;2023-04-28T13:18:53;6.40;;;1.73;;
72771;SDS011;60894;42.544;1.516;2023-04-28T13:21:21;6.55;;;1.60;;
72771;SDS011;60894;42.544;1.516;2023-04-28T13:23:52;5.50;;;1.50;;
72771;SDS011;60894;42.544;1.516;2023-04-28T13:26:19;6.40;;;1.73;;
72771;SDS011;60894;42.544;1.516;2023-04-28T13:28:46;5.03;;;1.60;;
72771;SDS011;60894;42.544;1.516;2023-04-28T13:31:13;4.78;;;1.50;;
72771;SDS011;60894;42.544;1.516;2023-04-28T13:33:40;5.20;;;1.45;;
72771;SDS011;60894;42.544;1.516;2023-04-28T13:36:07;6.95;;;1.45;;
72771;SDS011;60894;42.544;1.516;2023-04-28T13:38:34;3.67;;;1.50;;
72771;SDS011;60894;42.544;1.516;2023-04-28T13:41:03;5.30;;;1.45;;
72771;SDS011;60894;42.544;1.516;2023-04-28T13:43:30;3.45;;;1.50;;
72771;SDS011;60894;42.544;1.516;2023-04-28T13:45:57;5.65;;;1.60;;
72771;SDS011;60894;42.544;1.516;2023-04-28T13:48:23;6.20;;;1.60;;
72771;SDS011;60894;42.544;1.516;2023-04-28T13:50:51;6.23;;;1.50;;
72771;SDS011;60894;42.544;1.516;2023-04-28T13:53:18;5.70;;;1.52;;
72771;SDS011;60894;42.544;1.516;2023-04-28T13:55:47;6.07;;;1.50;;
72771;SDS011;60894;42.544;1.516;2023-04-28T13:58:16;4.95;;;1.60;;
72771;SDS011;60894;42.544;1.516;2023-04-28T14:00:43;6.30;;;1.80;;
72771;SDS011;60894;42.544;1.516;2023-04-28T14:03:10;5.07;;;1.67;;
72771;SDS011;60894;42.544;1.516;2023-04-28T14:05:37;5.55;;;1.40;;
72771;SDS011;60894;42.544;1.516;2023-04-28T14:08:04;4.70;;;1.50;;
72771;SDS011;60894;42.544;1.516;2023-04-28T14:10:32;3.83;;;1.60;;
72771;SDS011;60894;42.544;1.516;2023-04-28T14:12:59;4.32;;;1.50;;
72771;SDS011;60894;42.544;1.516;2023-04-28T14:15:28;6.73;;;1.67;;
72771;SDS011;60894;42.544;1.516;2023-04-28T14:17:56;6.93;;;2.00;;
72771;SDS011;60894;42.544;1.516;2023-04-28T14:20:23;5.72;;;1.80;;
72771;SDS011;60894;42.544;1.516;2023-04-28T14:22:50;4.32;;;1.67;;
72771;SDS011;60894;42.544;1.516;2023-04-28T14:25:17;6.00;;;1.58;;
72771;SDS011;60894;42.544;1.516;2023-04-28T14:27:44;4.10;;;1.40;;
72771;SDS011;60894;42.544;1.516;2023-04-28T14:30:11;4.82;;;1.52;;
72771;SDS011;60894;42.544;1.516;2023-04-28T14:32:39;4.93;;;1.65;;
72771;SDS011;60894;42.544;1.516;2023-04-28T14:35:07;6.05;;;1.70;;
72771;SDS011;60894;42.544;1.516;2023-04-28T14:37:34;4.85;;;1.80;;
72771;SDS011;60894;42.544;1.516;2023-04-28T14:40:01;13.07;;;1.80;;
72771;SDS011;60894;42.544;1.516;2023-04-28T14:42:30;8.02;;;2.33;;
72771;SDS011;60894;42.544;1.516;2023-04-28T14:45:00;6.75;;;1.70;;
72771;SDS011;60894;42.544;1.516;2023-04-28T14:47:27;4.05;;;1.63;;
72771;SDS011;60894;42.544;1.516;2023-04-28T14:49:56;7.00;;;1.70;;
72771;SDS011;60894;42.544;1.516;2023-04-28T14:52:23;3.43;;;1.70;;
72771;SDS011;60894;42.544;1.516;2023-04-28T14:54:52;4.53;;;1.60;;
72771;SDS011;60894;42.544;1.516;2023-04-28T14:57:19;4.80;;;1.50;;
72771;SDS011;60894;42.544;1.516;2023-04-28T14:59:46;4.40;;;1.80;;
72771;SDS011;60894;42.544;1.516;2023-04-28T15:02:13;5.40;;;1.67;;
72771;SDS011;60894;42.544;1.516;2023-04-28T15:04:40;4.97;;;1.43;;
72771;SDS011;60894;42.544;1.516;2023-04-28T15:07:08;4.18;;;1.60;;
72771;SDS011;60894;42.544;1.516;2023-04-28T15:09:35;6.68;;;1.88;;